sensor_id;sensor_type;location;lat;lon;timestamp;pressure;altitude;pressure_sealevel;temperature;humidity
54920;BME280;63804;53.120;8.764;2023-03-31T00:02:18;100378.16;;;10.52;70.61
54920;BME280;63804;53.120;8.764;2023-03-31T00:04:46;100370.88;;;10.54;70.37
54920;BME280;63804;53.120;8.764;2023-03-31T00:07:18;100376.03;;;10.55;70.50
54920;BME280;63804;53.120;8.764;2023-03-31T00:09:49;100367.53;;;10.52;70.80
54920;BME280;63804;53.120;8.764;2023-03-31T00:12:19;100368.91;;;10.46;71.29
54920;BME280;63804;53.120;8.764;2023-03-31T00:14:45;100363.59;;;10.46;71.34
54920;BME280;63804;53.120;8.764;2023-03-31T00:17:11;100369.75;;;10.47;71.63
54920;BME280;63804;53.120;8.764;2023-03-31T00:19:36;100354.63;;;10.47;71.54
54920;BME280;63804;53.120;8.764;2023-03-31T00:22:02;100353.69;;;10.48;71.78
54920;BME280;63804;53.120;8.764;2023-03-31T00:24:30;100353.38;;;10.41;72.42
54920;BME280;63804;53.120;8.764;2023-03-31T00:27:02;100348.59;;;10.35;72.75
54920;BME280;63804;53.120;8.764;2023-03-31T00:29:28;100348.47;;;10.37;72.99
54920;BME280;63804;53.120;8.764;2023-03-31T00:31:54;100353.91;;;10.35;72.97
54920;BME280;63804;53.120;8.764;2023-03-31T00:34:20;100341.34;;;10.37;72.91
54920;BME280;63804;53.120;8.764;2023-03-31T00:36:46;100333.50;;;10.36;72.71
54920;BME280;63804;53.120;8.764;2023-03-31T00:39:14;100327.22;;;10.37;73.03
54920;BME280;63804;53.120;8.764;2023-03-31T00:41:40;100325.53;;;10.36;72.71
54920;BME280;63804;53.120;8.764;2023-03-31T00:44:17;100318.84;;;10.41;73.23
54920;BME280;63804;53.120;8.764;2023-03-31T00:46:57;100319.25;;;10.37;73.22
54920;BME280;63804;53.120;8.764;2023-03-31T00:49:47;100317.56;;;10.36;73.90
54920;BME280;63804;53.120;8.764;2023-03-31T00:54:50;100309.88;;;10.33;73.77
54920;BME280;63804;53.120;8.764;2023-03-31T00:57:19;100303.72;;;10.32;74.09
54920;BME280;63804;53.120;8.764;2023-03-31T00:59:51;100307.09;;;10.34;74.15
54920;BME280;63804;53.120;8.764;2023-03-31T01:02:21;100304.44;;;10.34;74.33
54920;BME280;63804;53.120;8.764;2023-03-31T01:04:53;100298.28;;;10.34;74.39
54920;BME280;63804;53.120;8.764;2023-03-31T01:07:43;100304.84;;;10.30;74.99
54920;BME280;63804;53.120;8.764;2023-03-31T01:10:11;100298.69;;;10.29;74.72
54920;BME280;63804;53.120;8.764;2023-03-31T01:12:42;100294.66;;;10.35;74.73
54920;BME280;63804;53.120;8.764;2023-03-31T01:15:09;100286.69;;;10.25;74.99
54920;BME280;63804;53.120;8.764;2023-03-31T01:17:35;100283.72;;;10.28;74.94
54920;BME280;63804;53.120;8.764;2023-03-31T01:31:26;100253.69;;;10.28;75.56
54920;BME280;63804;53.120;8.764;2023-03-31T01:34:09;100246.13;;;10.23;75.19
54920;BME280;63804;53.120;8.764;2023-03-31T01:36:53;100244.00;;;10.17;76.08
54920;BME280;63804;53.120;8.764;2023-03-31T01:42:38;100234.25;;;10.27;75.22
54920;BME280;63804;53.120;8.764;2023-03-31T01:45:19;100232.91;;;10.33;74.94
54920;BME280;63804;53.120;8.764;2023-03-31T01:47:55;100226.72;;;10.32;75.24
54920;BME280;63804;53.120;8.764;2023-03-31T01:53:26;100222.53;;;10.30;75.55
54920;BME280;63804;53.120;8.764;2023-03-31T01:58:37;100214.56;;;10.30;75.71
54920;BME280;63804;53.120;8.764;2023-03-31T02:01:11;100207.97;;;10.24;75.63
54920;BME280;63804;53.120;8.764;2023-03-31T02:03:48;100201.41;;;10.28;75.70
54920;BME280;63804;53.120;8.764;2023-03-31T02:06:26;100196.81;;;10.20;75.89
54920;BME280;63804;53.120;8.764;2023-03-31T02:08:57;100204.38;;;10.25;75.82
54920;BME280;63804;53.120;8.764;2023-03-31T02:11:27;100198.09;;;10.26;75.73
54920;BME280;63804;53.120;8.764;2023-03-31T02:13:54;100187.47;;;10.26;75.73
54920;BME280;63804;53.120;8.764;2023-03-31T02:16:25;100183.13;;;10.25;75.68
54920;BME280;63804;53.120;8.764;2023-03-31T02:18:54;100174.47;;;10.23;76.08
54920;BME280;63804;53.120;8.764;2023-03-31T02:21:35;100181.16;;;10.17;76.38
54920;BME280;63804;53.120;8.764;2023-03-31T02:24:05;100175.97;;;10.16;76.14
54920;BME280;63804;53.120;8.764;2023-03-31T02:26:38;100163.84;;;10.13;76.49
54920;BME280;63804;53.120;8.764;2023-03-31T02:29:04;100179.06;;;10.11;76.37
54920;BME280;63804;53.120;8.764;2023-03-31T02:34:24;100173.59;;;10.13;76.96
54920;BME280;63804;53.120;8.764;2023-03-31T02:36:50;100171.09;;;10.11;76.48
54920;BME280;63804;53.120;8.764;2023-03-31T02:39:20;100165.25;;;10.17;76.39
54920;BME280;63804;53.120;8.764;2023-03-31T02:41:49;100172.06;;;10.10;76.58
54920;BME280;63804;53.120;8.764;2023-03-31T02:44:15;100166.19;;;10.16;76.43
54920;BME280;63804;53.120;8.764;2023-03-31T02:46:41;100154.19;;;10.12;76.52
54920;BME280;63804;53.120;8.764;2023-03-31T02:49:09;100148.03;;;10.12;76.24
54920;BME280;63804;53.120;8.764;2023-03-31T03:11:05;100125.56;;;10.06;76.14
54920;BME280;63804;53.120;8.764;2023-03-31T03:16:20;100128.06;;;10.08;76.14
54920;BME280;63804;53.120;8.764;2023-03-31T03:18:57;100121.91;;;10.07;75.81
54920;BME280;63804;53.120;8.764;2023-03-31T03:21:23;100118.69;;;10.04;75.84
54920;BME280;63804;53.120;8.764;2023-03-31T03:23:48;100125.41;;;10.08;75.79
54920;BME280;63804;53.120;8.764;2023-03-31T03:26:16;100106.81;;;10.08;75.73
54920;BME280;63804;53.120;8.764;2023-03-31T03:28:46;100098.56;;;10.01;75.97
54920;BME280;63804;53.120;8.764;2023-03-31T03:31:13;100109.34;;;10.09;75.41
54920;BME280;63804;53.120;8.764;2023-03-31T03:33:40;100097.19;;;10.07;75.49
54920;BME280;63804;53.120;8.764;2023-03-31T03:36:06;100098.88;;;10.08;75.40
54920;BME280;63804;53.120;8.764;2023-03-31T03:38:32;100091.75;;;10.08;75.31
54920;BME280;63804;53.120;8.764;2023-03-31T03:40:58;100085.16;;;10.12;75.04
54920;BME280;63804;53.120;8.764;2023-03-31T03:43:23;100095.78;;;10.12;75.22
54920;BME280;63804;53.120;8.764;2023-03-31T03:45:50;100094.94;;;10.12;75.23
54920;BME280;63804;53.120;8.764;2023-03-31T03:48:16;100092.56;;;10.09;75.11
54920;BME280;63804;53.120;8.764;2023-03-31T03:50:44;100087.16;;;10.10;75.18
54920;BME280;63804;53.120;8.764;2023-03-31T03:53:10;100082.66;;;10.11;74.90
54920;BME280;63804;53.120;8.764;2023-03-31T03:55:35;100068.69;;;10.09;74.85
54920;BME280;63804;53.120;8.764;2023-03-31T03:58:01;100072.31;;;10.08;75.19
54920;BME280;63804;53.120;8.764;2023-03-31T04:00:27;100061.03;;;10.06;75.13
54920;BME280;63804;53.120;8.764;2023-03-31T04:02:52;100062.97;;;10.04;75.10
54920;BME280;63804;53.120;8.764;2023-03-31T04:05:18;100065.34;;;10.07;75.01
54920;BME280;63804;53.120;8.764;2023-03-31T04:07:43;100050.81;;;10.11;74.93
54920;BME280;63804;53.120;8.764;2023-03-31T04:10:09;100044.97;;;10.07;74.96
54920;BME280;63804;53.120;8.764;2023-03-31T04:12:35;100044.97;;;10.07;74.78
54920;BME280;63804;53.120;8.764;2023-03-31T04:15:01;100042.16;;;10.09;74.97
54920;BME280;63804;53.120;8.764;2023-03-31T04:17:26;100033.34;;;10.08;74.93
54920;BME280;63804;53.120;8.764;2023-03-31T04:20:09;100025.81;;;10.04;74.90
54920;BME280;63804;53.120;8.764;2023-03-31T04:22:36;100019.25;;;10.08;74.98
54920;BME280;63804;53.120;8.764;2023-03-31T04:25:10;100017.16;;;10.02;74.98
54920;BME280;63804;53.120;8.764;2023-03-31T04:27:46;100005.84;;;10.00;74.85
54920;BME280;63804;53.120;8.764;2023-03-31T04:30:16;100007.78;;;9.98;75.03
54920;BME280;63804;53.120;8.764;2023-03-31T04:32:51;99995.22;;;9.90;75.25
54920;BME280;63804;53.120;8.764;2023-03-31T04:35:23;99991.63;;;9.91;75.14
54920;BME280;63804;53.120;8.764;2023-03-31T04:37:51;99985.06;;;9.95;75.29
54920;BME280;63804;53.120;8.764;2023-03-31T04:40:23;99976.66;;;9.80;75.59
54920;BME280;63804;53.120;8.764;2023-03-31T04:42:49;99970.94;;;9.85;75.54
54920;BME280;63804;53.120;8.764;2023-03-31T04:45:15;99973.16;;;9.89;75.28
54920;BME280;63804;53.120;8.764;2023-03-31T04:47:41;99955.19;;;9.83;75.43
54920;BME280;63804;53.120;8.764;2023-03-31T04:50:08;99958.91;;;9.81;75.63
54920;BME280;63804;53.120;8.764;2023-03-31T04:52:35;99960.44;;;9.74;76.00
54920;BME280;63804;53.120;8.764;2023-03-31T04:55:02;99955.41;;;9.70;76.13
54920;BME280;63804;53.120;8.764;2023-03-31T04:57:28;99940.22;;;9.73;76.33
54920;BME280;63804;53.120;8.764;2023-03-31T04:59:59;99935.75;;;9.73;75.98
54920;BME280;63804;53.120;8.764;2023-03-31T05:02:25;99936.41;;;9.75;76.21
54920;BME280;63804;53.120;8.764;2023-03-31T05:04:50;99930.72;;;9.70;76.03
54920;BME280;63804;53.120;8.764;2023-03-31T05:07:17;99922.47;;;9.73;76.08
54920;BME280;63804;53.120;8.764;2023-03-31T05:09:43;99922.75;;;9.70;75.96
54920;BME280;63804;53.120;8.764;2023-03-31T05:12:09;99923.31;;;9.74;75.95
54920;BME280;63804;53.120;8.764;2023-03-31T05:14:41;99913.81;;;9.71;76.11
54920;BME280;63804;53.120;8.764;2023-03-31T05:17:07;99910.88;;;9.74;75.93
54920;BME280;63804;53.120;8.764;2023-03-31T05:19:33;99908.66;;;9.69;76.10
54920;BME280;63804;53.120;8.764;2023-03-31T05:21:58;99907.94;;;9.67;76.19
54920;BME280;63804;53.120;8.764;2023-03-31T05:24:24;99905.44;;;9.66;76.15
54920;BME280;63804;53.120;8.764;2023-03-31T05:26:52;99899.59;;;9.72;75.86
54920;BME280;63804;53.120;8.764;2023-03-31T05:29:18;99892.31;;;9.74;75.92
54920;BME280;63804;53.120;8.764;2023-03-31T05:31:45;99895.94;;;9.73;75.95
54920;BME280;63804;53.120;8.764;2023-03-31T05:34:10;99892.19;;;9.76;75.97
54920;BME280;63804;53.120;8.764;2023-03-31T05:36:36;99887.88;;;9.65;76.40
54920;BME280;63804;53.120;8.764;2023-03-31T05:39:03;99888.44;;;9.68;76.40
54920;BME280;63804;53.120;8.764;2023-03-31T05:41:29;99892.75;;;9.69;76.56
54920;BME280;63804;53.120;8.764;2023-03-31T05:43:55;99886.22;;;9.64;77.00
54920;BME280;63804;53.120;8.764;2023-03-31T05:46:20;99889.81;;;9.63;77.30
54920;BME280;63804;53.120;8.764;2023-03-31T05:48:46;99887.59;;;9.68;77.22
54920;BME280;63804;53.120;8.764;2023-03-31T05:51:11;99892.47;;;9.63;77.48
54920;BME280;63804;53.120;8.764;2023-03-31T05:53:37;99890.53;;;9.55;77.99
54920;BME280;63804;53.120;8.764;2023-03-31T05:56:04;99884.09;;;9.48;78.04
54920;BME280;63804;53.120;8.764;2023-03-31T05:58:33;99883.41;;;9.46;78.49
54920;BME280;63804;53.120;8.764;2023-03-31T06:01:01;99881.88;;;9.43;78.82
54920;BME280;63804;53.120;8.764;2023-03-31T06:03:31;99880.22;;;9.42;78.61
54920;BME280;63804;53.120;8.764;2023-03-31T06:05:57;99884.97;;;9.49;78.96
54920;BME280;63804;53.120;8.764;2023-03-31T06:08:23;99861.78;;;9.51;78.61
54920;BME280;63804;53.120;8.764;2023-03-31T06:10:49;99863.31;;;9.53;78.65
54920;BME280;63804;53.120;8.764;2023-03-31T06:13:15;99862.75;;;9.50;79.19
54920;BME280;63804;53.120;8.764;2023-03-31T06:15:40;99857.59;;;9.48;78.94
54920;BME280;63804;53.120;8.764;2023-03-31T06:18:06;99859.41;;;9.47;79.27
54920;BME280;63804;53.120;8.764;2023-03-31T06:20:35;99862.06;;;9.47;79.23
54920;BME280;63804;53.120;8.764;2023-03-31T06:23:01;99851.88;;;9.43;79.40
54920;BME280;63804;53.120;8.764;2023-03-31T06:25:26;99844.91;;;9.42;80.07
54920;BME280;63804;53.120;8.764;2023-03-31T06:27:52;99842.81;;;9.45;79.72
54920;BME280;63804;53.120;8.764;2023-03-31T06:30:17;99835.41;;;9.49;79.68
54920;BME280;63804;53.120;8.764;2023-03-31T06:32:43;99837.25;;;9.49;79.66
54920;BME280;63804;53.120;8.764;2023-03-31T06:35:08;99838.91;;;9.50;79.96
54920;BME280;63804;53.120;8.764;2023-03-31T06:37:35;99839.59;;;9.52;80.17
54920;BME280;63804;53.120;8.764;2023-03-31T06:40:00;99841.13;;;9.44;80.07
54920;BME280;63804;53.120;8.764;2023-03-31T06:42:26;99833.44;;;9.51;80.23
54920;BME280;63804;53.120;8.764;2023-03-31T06:44:51;99833.31;;;9.53;79.84
54920;BME280;63804;53.120;8.764;2023-03-31T06:47:17;99827.03;;;9.54;80.06
54920;BME280;63804;53.120;8.764;2023-03-31T06:49:42;99823.28;;;9.56;79.98
54920;BME280;63804;53.120;8.764;2023-03-31T06:52:08;99833.00;;;9.65;79.82
54920;BME280;63804;53.120;8.764;2023-03-31T06:54:33;99828.81;;;9.63;80.24
54920;BME280;63804;53.120;8.764;2023-03-31T06:56:59;99824.09;;;9.57;80.49
54920;BME280;63804;53.120;8.764;2023-03-31T06:59:24;99821.28;;;9.68;80.08
54920;BME280;63804;53.120;8.764;2023-03-31T07:01:50;99820.03;;;9.72;79.90
54920;BME280;63804;53.120;8.764;2023-03-31T07:04:15;99817.06;;;9.75;79.72
54920;BME280;63804;53.120;8.764;2023-03-31T07:06:41;99812.34;;;9.59;80.39
54920;BME280;63804;53.120;8.764;2023-03-31T07:09:06;99814.59;;;9.54;80.71
54920;BME280;63804;53.120;8.764;2023-03-31T07:11:41;99810.25;;;9.63;80.57
54920;BME280;63804;53.120;8.764;2023-03-31T07:14:13;99811.78;;;9.65;80.51
54920;BME280;63804;53.120;8.764;2023-03-31T07:16:47;99799.34;;;9.76;80.21
54920;BME280;63804;53.120;8.764;2023-03-31T07:19:12;99800.03;;;9.87;79.85
54920;BME280;63804;53.120;8.764;2023-03-31T07:21:39;99785.78;;;9.88;79.94
54920;BME280;63804;53.120;8.764;2023-03-31T07:24:05;99799.34;;;9.85;79.97
54920;BME280;63804;53.120;8.764;2023-03-31T07:26:31;99795.00;;;9.75;80.48
54920;BME280;63804;53.120;8.764;2023-03-31T07:28:56;99794.88;;;9.76;80.71
54920;BME280;63804;53.120;8.764;2023-03-31T07:31:23;99794.44;;;9.81;80.82
54920;BME280;63804;53.120;8.764;2023-03-31T07:33:48;99787.75;;;9.86;80.51
54920;BME280;63804;53.120;8.764;2023-03-31T07:36:14;99779.50;;;9.89;80.24
54920;BME280;63804;53.120;8.764;2023-03-31T07:38:44;99780.78;;;9.85;80.49
54920;BME280;63804;53.120;8.764;2023-03-31T07:41:12;99786.88;;;9.95;80.13
54920;BME280;63804;53.120;8.764;2023-03-31T07:43:38;99775.38;;;10.05;80.09
54920;BME280;63804;53.120;8.764;2023-03-31T07:46:04;99771.25;;;10.20;79.39
54920;BME280;63804;53.120;8.764;2023-03-31T07:48:32;99769.59;;;10.19;79.65
54920;BME280;63804;53.120;8.764;2023-03-31T07:50:58;99762.41;;;10.29;79.39
54920;BME280;63804;53.120;8.764;2023-03-31T07:53:24;99756.88;;;10.23;79.32
54920;BME280;63804;53.120;8.764;2023-03-31T07:55:49;99758.97;;;10.19;79.85
54920;BME280;63804;53.120;8.764;2023-03-31T07:58:15;99753.66;;;10.19;79.85
54920;BME280;63804;53.120;8.764;2023-03-31T08:00:40;99754.03;;;10.24;79.86
54920;BME280;63804;53.120;8.764;2023-03-31T08:03:06;99751.06;;;10.37;79.45
54920;BME280;63804;53.120;8.764;2023-03-31T08:05:32;99736.78;;;10.38;79.44
54920;BME280;63804;53.120;8.764;2023-03-31T08:07:57;99742.03;;;10.48;79.44
54920;BME280;63804;53.120;8.764;2023-03-31T08:10:25;99736.88;;;10.46;79.55
54920;BME280;63804;53.120;8.764;2023-03-31T08:12:51;99735.03;;;10.47;79.45
54920;BME280;63804;53.120;8.764;2023-03-31T08:15:17;99733.69;;;10.42;79.96
54920;BME280;63804;53.120;8.764;2023-03-31T08:17:45;99717.84;;;10.33;79.95
54920;BME280;63804;53.120;8.764;2023-03-31T08:20:11;99723.69;;;10.36;80.02
54920;BME280;63804;53.120;8.764;2023-03-31T08:22:38;99707.03;;;10.34;80.23
54920;BME280;63804;53.120;8.764;2023-03-31T08:25:05;99707.38;;;10.49;79.46
54920;BME280;63804;53.120;8.764;2023-03-31T08:27:37;99705.69;;;10.66;78.96
54920;BME280;63804;53.120;8.764;2023-03-31T08:30:03;99703.25;;;10.73;78.86
54920;BME280;63804;53.120;8.764;2023-03-31T08:32:31;99704.63;;;10.77;78.76
54920;BME280;63804;53.120;8.764;2023-03-31T08:34:57;99704.16;;;10.81;78.99
54920;BME280;63804;53.120;8.764;2023-03-31T08:37:23;99691.28;;;10.68;79.15
54920;BME280;63804;53.120;8.764;2023-03-31T08:39:49;99695.06;;;10.66;79.50
54920;BME280;63804;53.120;8.764;2023-03-31T08:42:20;99690.03;;;10.63;79.29
54920;BME280;63804;53.120;8.764;2023-03-31T08:45:38;99683.06;;;10.62;79.67
54920;BME280;63804;53.120;8.764;2023-03-31T08:48:13;99680.81;;;10.49;79.63
54920;BME280;63804;53.120;8.764;2023-03-31T08:50:46;99676.25;;;10.41;79.38
54920;BME280;63804;53.120;8.764;2023-03-31T08:55:52;99668.38;;;10.50;79.26
54920;BME280;63804;53.120;8.764;2023-03-31T08:58:35;99666.41;;;10.34;79.95
54920;BME280;63804;53.120;8.764;2023-03-31T09:06:40;99661.94;;;10.52;79.65
54920;BME280;63804;53.120;8.764;2023-03-31T09:10:04;99656.63;;;10.52;79.62
54920;BME280;63804;53.120;8.764;2023-03-31T09:15:47;99643.03;;;10.37;79.90
54920;BME280;63804;53.120;8.764;2023-03-31T09:20:56;99643.41;;;10.42;79.86
54920;BME280;63804;53.120;8.764;2023-03-31T09:23:30;99637.03;;;10.35;80.66
54920;BME280;63804;53.120;8.764;2023-03-31T09:25:58;99638.78;;;10.27;80.43
54920;BME280;63804;53.120;8.764;2023-03-31T09:28:32;99624.31;;;10.21;81.16
54920;BME280;63804;53.120;8.764;2023-03-31T09:31:02;99623.63;;;10.19;81.34
54920;BME280;63804;53.120;8.764;2023-03-31T09:33:30;99620.38;;;10.25;81.06
54920;BME280;63804;53.120;8.764;2023-03-31T09:36:12;99615.88;;;10.26;81.39
54920;BME280;63804;53.120;8.764;2023-03-31T09:38:41;99608.88;;;10.25;81.78
54920;BME280;63804;53.120;8.764;2023-03-31T09:41:07;99601.78;;;10.25;81.63
54920;BME280;63804;53.120;8.764;2023-03-31T09:43:33;99606.16;;;10.16;81.94
54920;BME280;63804;53.120;8.764;2023-03-31T09:46:17;99597.66;;;10.13;82.67
54920;BME280;63804;53.120;8.764;2023-03-31T09:48:51;99603.84;;;10.13;82.14
54920;BME280;63804;53.120;8.764;2023-03-31T09:51:24;99607.97;;;10.16;81.95
54920;BME280;63804;53.120;8.764;2023-03-31T09:54:03;99604.97;;;10.11;81.97
54920;BME280;63804;53.120;8.764;2023-03-31T09:59:16;99594.78;;;10.24;81.47
54920;BME280;63804;53.120;8.764;2023-03-31T10:01:44;99595.94;;;10.22;81.12
54920;BME280;63804;53.120;8.764;2023-03-31T10:04:26;99583.09;;;10.17;81.34
54920;BME280;63804;53.120;8.764;2023-03-31T10:06:53;99570.53;;;10.19;81.15
54920;BME280;63804;53.120;8.764;2023-03-31T10:09:20;99579.09;;;10.31;80.61
54920;BME280;63804;53.120;8.764;2023-03-31T10:11:56;99574.00;;;10.37;80.49
54920;BME280;63804;53.120;8.764;2023-03-31T10:14:32;99573.19;;;10.63;79.33
54920;BME280;63804;53.120;8.764;2023-03-31T10:17:02;99567.78;;;10.73;78.53
54920;BME280;63804;53.120;8.764;2023-03-31T10:19:31;99566.94;;;10.98;78.03
54920;BME280;63804;53.120;8.764;2023-03-31T10:22:25;99561.03;;;11.47;76.92
54920;BME280;63804;53.120;8.764;2023-03-31T10:24:52;99553.19;;;11.37;77.00
54920;BME280;63804;53.120;8.764;2023-03-31T10:27:27;99552.56;;;11.09;77.91
54920;BME280;63804;53.120;8.764;2023-03-31T10:29:55;99549.97;;;10.91;78.80
54920;BME280;63804;53.120;8.764;2023-03-31T10:32:24;99544.59;;;10.83;78.99
54920;BME280;63804;53.120;8.764;2023-03-31T10:34:51;99546.44;;;10.82;78.70
54920;BME280;63804;53.120;8.764;2023-03-31T10:37:21;99547.22;;;10.75;78.76
54920;BME280;63804;53.120;8.764;2023-03-31T10:39:56;99542.94;;;10.56;79.35
54920;BME280;63804;53.120;8.764;2023-03-31T10:42:22;99544.81;;;10.63;79.31
54920;BME280;63804;53.120;8.764;2023-03-31T10:44:48;99543.88;;;10.73;78.93
54920;BME280;63804;53.120;8.764;2023-03-31T10:49:41;99540.69;;;10.69;79.04
54920;BME280;63804;53.120;8.764;2023-03-31T10:52:24;99535.56;;;10.67;79.29
54920;BME280;63804;53.120;8.764;2023-03-31T10:54:58;99533.59;;;10.78;78.85
54920;BME280;63804;53.120;8.764;2023-03-31T10:57:48;99530.38;;;10.92;78.46
54920;BME280;63804;53.120;8.764;2023-03-31T11:00:31;99540.94;;;10.84;78.40
54920;BME280;63804;53.120;8.764;2023-03-31T11:06:12;99528.94;;;10.72;79.18
54920;BME280;63804;53.120;8.764;2023-03-31T11:11:55;99530.88;;;10.96;78.91
54920;BME280;63804;53.120;8.764;2023-03-31T11:14:37;99517.16;;;11.08;77.98
54920;BME280;63804;53.120;8.764;2023-03-31T11:19:58;99514.38;;;11.18;77.53
54920;BME280;63804;53.120;8.764;2023-03-31T11:22:35;99513.81;;;11.40;76.36
54920;BME280;63804;53.120;8.764;2023-03-31T11:30:24;99509.22;;;11.67;75.52
54920;BME280;63804;53.120;8.764;2023-03-31T11:35:32;99498.94;;;11.97;74.54
54920;BME280;63804;53.120;8.764;2023-03-31T11:38:31;99500.09;;;12.10;74.47
54920;BME280;63804;53.120;8.764;2023-03-31T11:41:08;99497.25;;;12.04;73.43
54920;BME280;63804;53.120;8.764;2023-03-31T11:46:07;99496.06;;;11.57;75.29
54920;BME280;63804;53.120;8.764;2023-03-31T11:48:57;99476.81;;;11.72;73.76
54920;BME280;63804;53.120;8.764;2023-03-31T11:54:31;99469.09;;;11.36;75.32
54920;BME280;63804;53.120;8.764;2023-03-31T11:57:01;99473.81;;;11.16;75.58
54920;BME280;63804;53.120;8.764;2023-03-31T11:59:31;99476.88;;;11.29;75.31
54920;BME280;63804;53.120;8.764;2023-03-31T12:02:14;99473.41;;;11.29;75.35
54920;BME280;63804;53.120;8.764;2023-03-31T12:04:42;99482.44;;;11.10;74.95
54920;BME280;63804;53.120;8.764;2023-03-31T12:07:30;99472.47;;;11.12;75.55
54920;BME280;63804;53.120;8.764;2023-03-31T12:10:28;99479.75;;;11.02;75.10
54920;BME280;63804;53.120;8.764;2023-03-31T12:13:04;99482.88;;;10.97;74.02
54920;BME280;63804;53.120;8.764;2023-03-31T12:15:37;99488.09;;;11.15;72.83
54920;BME280;63804;53.120;8.764;2023-03-31T12:18:17;99480.09;;;11.07;71.97
54920;BME280;63804;53.120;8.764;2023-03-31T12:20:48;99482.97;;;11.13;72.75
54920;BME280;63804;53.120;8.764;2023-03-31T12:23:18;99484.63;;;11.23;72.71
54920;BME280;63804;53.120;8.764;2023-03-31T12:25:51;99480.56;;;11.28;72.62
54920;BME280;63804;53.120;8.764;2023-03-31T12:28:19;99476.09;;;11.45;71.91
54920;BME280;63804;53.120;8.764;2023-03-31T12:30:46;99476.78;;;11.55;71.38
54920;BME280;63804;53.120;8.764;2023-03-31T12:33:26;99477.09;;;11.52;71.00
54920;BME280;63804;53.120;8.764;2023-03-31T12:38:49;99475.97;;;11.63;70.86
54920;BME280;63804;53.120;8.764;2023-03-31T12:41:28;99473.25;;;11.47;71.38
54920;BME280;63804;53.120;8.764;2023-03-31T12:52:02;99467.28;;;11.53;70.89
54920;BME280;63804;53.120;8.764;2023-03-31T12:55:05;99460.66;;;11.65;69.78
54920;BME280;63804;53.120;8.764;2023-03-31T12:57:36;99462.50;;;11.73;70.51
54920;BME280;63804;53.120;8.764;2023-03-31T13:02:32;99458.16;;;11.88;70.25
54920;BME280;63804;53.120;8.764;2023-03-31T13:04:58;99451.34;;;11.77;70.00
54920;BME280;63804;53.120;8.764;2023-03-31T13:13:03;99449.16;;;11.40;70.61
54920;BME280;63804;53.120;8.764;2023-03-31T13:15:31;99437.66;;;11.23;71.53
54920;BME280;63804;53.120;8.764;2023-03-31T13:18:01;99441.78;;;11.17;71.53
54920;BME280;63804;53.120;8.764;2023-03-31T13:20:36;99449.44;;;11.21;71.32
54920;BME280;63804;53.120;8.764;2023-03-31T13:23:04;99448.41;;;11.13;71.53
54920;BME280;63804;53.120;8.764;2023-03-31T13:30:50;99447.75;;;11.20;71.52
54920;BME280;63804;53.120;8.764;2023-03-31T13:35:49;99449.31;;;11.30;71.09
54920;BME280;63804;53.120;8.764;2023-03-31T13:52:10;99447.34;;;11.40;71.98
54920;BME280;63804;53.120;8.764;2023-03-31T14:01:15;99434.69;;;11.43;72.55
54920;BME280;63804;53.120;8.764;2023-03-31T14:03:36;99445.31;;;11.43;72.52
54920;BME280;63804;53.120;8.764;2023-03-31T14:06:17;99438.88;;;11.53;72.11
54920;BME280;63804;53.120;8.764;2023-03-31T14:08:55;99436.03;;;11.47;72.80
54920;BME280;63804;53.120;8.764;2023-03-31T14:11:29;99431.88;;;11.52;73.24
54920;BME280;63804;53.120;8.764;2023-03-31T14:16:25;99435.75;;;11.66;72.35
54920;BME280;63804;53.120;8.764;2023-03-31T14:18:58;99434.41;;;11.78;72.10
54920;BME280;63804;53.120;8.764;2023-03-31T14:21:37;99427.75;;;11.90;71.85
54920;BME280;63804;53.120;8.764;2023-03-31T14:24:32;99420.75;;;11.98;71.23
54920;BME280;63804;53.120;8.764;2023-03-31T14:30:17;99424.06;;;12.16;70.08
54920;BME280;63804;53.120;8.764;2023-03-31T14:33:28;99423.06;;;12.17;69.80
54920;BME280;63804;53.120;8.764;2023-03-31T14:38:44;99416.00;;;12.41;69.39
54920;BME280;63804;53.120;8.764;2023-03-31T14:41:16;99409.19;;;12.38;69.21
54920;BME280;63804;53.120;8.764;2023-03-31T14:43:47;99418.38;;;12.27;69.28
54920;BME280;63804;53.120;8.764;2023-03-31T14:46:18;99415.59;;;12.12;69.47
54920;BME280;63804;53.120;8.764;2023-03-31T14:48:47;99418.25;;;12.12;70.16
54920;BME280;63804;53.120;8.764;2023-03-31T14:51:14;99412.75;;;12.14;69.95
54920;BME280;63804;53.120;8.764;2023-03-31T14:53:40;99417.34;;;12.36;69.12
54920;BME280;63804;53.120;8.764;2023-03-31T14:56:14;99421.84;;;12.52;67.97
54920;BME280;63804;53.120;8.764;2023-03-31T14:58:47;99417.66;;;12.58;67.66
54920;BME280;63804;53.120;8.764;2023-03-31T15:01:17;99414.00;;;12.59;67.93
54920;BME280;63804;53.120;8.764;2023-03-31T15:03:44;99415.00;;;12.58;67.95
54920;BME280;63804;53.120;8.764;2023-03-31T15:06:11;99416.81;;;12.66;67.97
54920;BME280;63804;53.120;8.764;2023-03-31T15:08:38;99414.09;;;12.74;67.55
54920;BME280;63804;53.120;8.764;2023-03-31T15:11:07;99413.47;;;12.63;67.90
54920;BME280;63804;53.120;8.764;2023-03-31T15:13:46;99411.84;;;12.46;68.56
54920;BME280;63804;53.120;8.764;2023-03-31T15:16:39;99417.03;;;12.31;68.93
54920;BME280;63804;53.120;8.764;2023-03-31T15:19:20;99415.22;;;12.24;69.77
54920;BME280;63804;53.120;8.764;2023-03-31T15:22:16;99411.72;;;12.15;69.91
54920;BME280;63804;53.120;8.764;2023-03-31T15:24:45;99423.72;;;12.03;70.43
54920;BME280;63804;53.120;8.764;2023-03-31T15:29:50;99411.44;;;11.77;71.64
54920;BME280;63804;53.120;8.764;2023-03-31T15:32:24;99417.59;;;11.70;71.87
54920;BME280;63804;53.120;8.764;2023-03-31T15:34:51;99411.28;;;11.71;71.63
54920;BME280;63804;53.120;8.764;2023-03-31T15:37:21;99409.13;;;11.90;71.40
54920;BME280;63804;53.120;8.764;2023-03-31T15:39:48;99404.44;;;11.84;71.54
54920;BME280;63804;53.120;8.764;2023-03-31T15:42:14;99409.13;;;11.74;72.01
54920;BME280;63804;53.120;8.764;2023-03-31T15:44:45;99408.78;;;11.69;72.14
54920;BME280;63804;53.120;8.764;2023-03-31T15:47:17;99414.09;;;11.69;72.34